sensor_id;sensor_type;location;lat;lon;timestamp;P1;durP1;ratioP1;P2;durP2;ratioP2
52942;SDS011;38809;53.300;6.614;2023-11-19T00:00:18;34.10;;;16.27;;
52942;SDS011;38809;53.300;6.614;2023-11-19T00:02:44;32.30;;;14.98;;
52942;SDS011;38809;53.300;6.614;2023-11-19T00:05:10;34.33;;;15.68;;
52942;SDS011;38809;53.300;6.614;2023-11-19T00:07:37;27.95;;;14.75;;
52942;SDS011;38809;53.300;6.614;2023-11-19T00:10:15;35.15;;;16.48;;
52942;SDS011;38809;53.300;6.614;2023-11-19T00:12:44;35.40;;;16.38;;
52942;SDS011;38809;53.300;6.614;2023-11-19T00:15:11;30.70;;;14.07;;
52942;SDS011;38809;53.300;6.614;2023-11-19T00:17:37;33.28;;;14.60;;
52942;SDS011;38809;53.300;6.614;2023-11-19T00:20:13;28.40;;;13.15;;
52942;SDS011;38809;53.300;6.614;2023-11-19T00:22:40;29.70;;;12.60;;
52942;SDS011;38809;53.300;6.614;2023-11-19T00:25:09;24.23;;;12.50;;
52942;SDS011;38809;53.300;6.614;2023-11-19T00:27:35;27.52;;;11.88;;
52942;SDS011;38809;53.300;6.614;2023-11-19T00:30:05;25.35;;;11.15;;
52942;SDS011;38809;53.300;6.614;2023-11-19T00:32:32;25.15;;;10.63;;
52942;SDS011;38809;53.300;6.614;2023-11-19T00:37:24;20.92;;;8.73;;
52942;SDS011;38809;53.300;6.614;2023-11-19T00:39:50;25.73;;;10.23;;
52942;SDS011;38809;53.300;6.614;2023-11-19T00:42:17;20.45;;;8.30;;
52942;SDS011;38809;53.300;6.614;2023-11-19T00:44:43;22.67;;;8.20;;
52942;SDS011;38809;53.300;6.614;2023-11-19T00:47:10;29.08;;;8.20;;
52942;SDS011;38809;53.300;6.614;2023-11-19T00:49:36;21.45;;;8.00;;
52942;SDS011;38809;53.300;6.614;2023-11-19T00:52:03;27.10;;;7.32;;
52942;SDS011;38809;53.300;6.614;2023-11-19T00:54:29;23.58;;;6.85;;
52942;SDS011;38809;53.300;6.614;2023-11-19T00:56:55;18.98;;;6.47;;
52942;SDS011;38809;53.300;6.614;2023-11-19T00:59:21;13.30;;;5.75;;
52942;SDS011;38809;53.300;6.614;2023-11-19T01:01:47;25.15;;;7.05;;
52942;SDS011;38809;53.300;6.614;2023-11-19T01:04:14;22.50;;;6.60;;
52942;SDS011;38809;53.300;6.614;2023-11-19T01:09:07;19.45;;;5.32;;
52942;SDS011;38809;53.300;6.614;2023-11-19T01:11:34;23.48;;;5.22;;
52942;SDS011;38809;53.300;6.614;2023-11-19T01:14:00;25.13;;;5.65;;
52942;SDS011;38809;53.300;6.614;2023-11-19T01:16:26;19.25;;;4.93;;
52942;SDS011;38809;53.300;6.614;2023-11-19T01:21:19;21.15;;;5.63;;
52942;SDS011;38809;53.300;6.614;2023-11-19T01:23:47;18.25;;;4.82;;
52942;SDS011;38809;53.300;6.614;2023-11-19T01:26:13;27.80;;;5.68;;
52942;SDS011;38809;53.300;6.614;2023-11-19T01:28:39;23.80;;;5.20;;
52942;SDS011;38809;53.300;6.614;2023-11-19T01:31:14;22.00;;;4.88;;
52942;SDS011;38809;53.300;6.614;2023-11-19T01:33:41;24.05;;;6.00;;
52942;SDS011;38809;53.300;6.614;2023-11-19T01:38:34;21.63;;;5.13;;
52942;SDS011;38809;53.300;6.614;2023-11-19T01:41:06;20.60;;;5.07;;
52942;SDS011;38809;53.300;6.614;2023-11-19T01:43:32;19.08;;;4.63;;
52942;SDS011;38809;53.300;6.614;2023-11-19T01:45:59;17.67;;;4.53;;
52942;SDS011;38809;53.300;6.614;2023-11-19T01:48:26;18.33;;;4.05;;
52942;SDS011;38809;53.300;6.614;2023-11-19T01:53:18;19.83;;;4.88;;
52942;SDS011;38809;53.300;6.614;2023-11-19T01:55:46;20.70;;;4.75;;
52942;SDS011;38809;53.300;6.614;2023-11-19T01:58:12;22.42;;;4.70;;
52942;SDS011;38809;53.300;6.614;2023-11-19T02:00:38;21.02;;;5.00;;
52942;SDS011;38809;53.300;6.614;2023-11-19T02:03:08;20.30;;;5.88;;
52942;SDS011;38809;53.300;6.614;2023-11-19T02:05:34;19.55;;;4.95;;
52942;SDS011;38809;53.300;6.614;2023-11-19T02:08:01;22.50;;;4.63;;
52942;SDS011;38809;53.300;6.614;2023-11-19T02:10:28;23.58;;;4.90;;
52942;SDS011;38809;53.300;6.614;2023-11-19T02:12:54;22.75;;;5.07;;
52942;SDS011;38809;53.300;6.614;2023-11-19T02:15:20;16.33;;;4.50;;
52942;SDS011;38809;53.300;6.614;2023-11-19T02:17:50;20.77;;;4.55;;
52942;SDS011;38809;53.300;6.614;2023-11-19T02:20:16;20.65;;;4.20;;
52942;SDS011;38809;53.300;6.614;2023-11-19T02:22:45;18.10;;;4.57;;
52942;SDS011;38809;53.300;6.614;2023-11-19T02:25:13;16.30;;;4.28;;
52942;SDS011;38809;53.300;6.614;2023-11-19T02:30:11;15.38;;;4.03;;
52942;SDS011;38809;53.300;6.614;2023-11-19T02:32:43;22.98;;;4.90;;
52942;SDS011;38809;53.300;6.614;2023-11-19T02:35:09;21.88;;;4.07;;
52942;SDS011;38809;53.300;6.614;2023-11-19T02:37:36;22.40;;;4.20;;
52942;SDS011;38809;53.300;6.614;2023-11-19T02:40:03;17.63;;;3.83;;
52942;SDS011;38809;53.300;6.614;2023-11-19T02:42:30;17.33;;;4.60;;
52942;SDS011;38809;53.300;6.614;2023-11-19T02:47:23;18.38;;;4.30;;
52942;SDS011;38809;53.300;6.614;2023-11-19T02:49:49;22.40;;;4.20;;
52942;SDS011;38809;53.300;6.614;2023-11-19T02:52:15;15.40;;;4.10;;
52942;SDS011;38809;53.300;6.614;2023-11-19T02:54:42;22.75;;;4.40;;
52942;SDS011;38809;53.300;6.614;2023-11-19T02:57:08;26.65;;;4.88;;
52942;SDS011;38809;53.300;6.614;2023-11-19T02:59:38;19.73;;;4.63;;
52942;SDS011;38809;53.300;6.614;2023-11-19T03:02:07;21.90;;;4.05;;
52942;SDS011;38809;53.300;6.614;2023-11-19T03:04:36;18.95;;;3.60;;
52942;SDS011;38809;53.300;6.614;2023-11-19T03:07:07;15.48;;;4.20;;
52942;SDS011;38809;53.300;6.614;2023-11-19T03:09:33;13.85;;;3.28;;
52942;SDS011;38809;53.300;6.614;2023-11-19T03:14:26;20.17;;;4.80;;
52942;SDS011;38809;53.300;6.614;2023-11-19T03:16:52;18.25;;;4.32;;
52942;SDS011;38809;53.300;6.614;2023-11-19T03:19:18;16.35;;;3.78;;
52942;SDS011;38809;53.300;6.614;2023-11-19T03:21:44;19.50;;;4.22;;
52942;SDS011;38809;53.300;6.614;2023-11-19T03:24:13;22.15;;;4.28;;
52942;SDS011;38809;53.300;6.614;2023-11-19T03:26:40;16.83;;;4.55;;
52942;SDS011;38809;53.300;6.614;2023-11-19T03:29:07;20.25;;;4.90;;
52942;SDS011;38809;53.300;6.614;2023-11-19T03:31:34;19.88;;;3.97;;
52942;SDS011;38809;53.300;6.614;2023-11-19T03:34:00;25.90;;;4.28;;
52942;SDS011;38809;53.300;6.614;2023-11-19T03:36:31;18.27;;;5.38;;
52942;SDS011;38809;53.300;6.614;2023-11-19T03:38:58;18.67;;;4.18;;
52942;SDS011;38809;53.300;6.614;2023-11-19T03:41:24;22.38;;;4.10;;
52942;SDS011;38809;53.300;6.614;2023-11-19T03:43:50;24.70;;;5.32;;
52942;SDS011;38809;53.300;6.614;2023-11-19T03:46:17;15.20;;;3.47;;
52942;SDS011;38809;53.300;6.614;2023-11-19T03:48:43;22.27;;;4.88;;
52942;SDS011;38809;53.300;6.614;2023-11-19T03:51:09;17.48;;;4.63;;
52942;SDS011;38809;53.300;6.614;2023-11-19T03:53:36;19.45;;;4.38;;
52942;SDS011;38809;53.300;6.614;2023-11-19T03:56:03;15.95;;;4.25;;
52942;SDS011;38809;53.300;6.614;2023-11-19T03:58:29;26.38;;;4.75;;
52942;SDS011;38809;53.300;6.614;2023-11-19T04:00:55;18.60;;;3.85;;
52942;SDS011;38809;53.300;6.614;2023-11-19T04:03:21;16.15;;;3.85;;
52942;SDS011;38809;53.300;6.614;2023-11-19T04:05:47;23.40;;;4.75;;
52942;SDS011;38809;53.300;6.614;2023-11-19T04:08:13;21.65;;;4.07;;
52942;SDS011;38809;53.300;6.614;2023-11-19T04:10:39;19.65;;;4.00;;
52942;SDS011;38809;53.300;6.614;2023-11-19T04:13:05;15.77;;;3.75;;
52942;SDS011;38809;53.300;6.614;2023-11-19T04:15:31;19.45;;;4.00;;
52942;SDS011;38809;53.300;6.614;2023-11-19T04:17:57;18.50;;;4.35;;
52942;SDS011;38809;53.300;6.614;2023-11-19T04:20:23;20.00;;;4.38;;
52942;SDS011;38809;53.300;6.614;2023-11-19T04:22:50;17.17;;;5.05;;
52942;SDS011;38809;53.300;6.614;2023-11-19T04:25:16;20.70;;;3.50;;
52942;SDS011;38809;53.300;6.614;2023-11-19T04:27:44;19.58;;;4.07;;
52942;SDS011;38809;53.300;6.614;2023-11-19T04:30:12;20.45;;;4.05;;
52942;SDS011;38809;53.300;6.614;2023-11-19T04:32:39;22.15;;;4.50;;
52942;SDS011;38809;53.300;6.614;2023-11-19T04:35:05;22.42;;;4.47;;
52942;SDS011;38809;53.300;6.614;2023-11-19T04:37:32;18.02;;;4.28;;
52942;SDS011;38809;53.300;6.614;2023-11-19T04:39:58;17.85;;;4.40;;
52942;SDS011;38809;53.300;6.614;2023-11-19T04:44:51;23.17;;;4.53;;
52942;SDS011;38809;53.300;6.614;2023-11-19T04:49:43;21.88;;;4.63;;
52942;SDS011;38809;53.300;6.614;2023-11-19T04:52:09;18.83;;;4.38;;
52942;SDS011;38809;53.300;6.614;2023-11-19T04:54:40;24.42;;;5.13;;
52942;SDS011;38809;53.300;6.614;2023-11-19T04:57:07;20.67;;;4.32;;
52942;SDS011;38809;53.300;6.614;2023-11-19T04:59:36;23.40;;;5.10;;
52942;SDS011;38809;53.300;6.614;2023-11-19T05:02:02;24.33;;;6.32;;
52942;SDS011;38809;53.300;6.614;2023-11-19T05:04:34;21.77;;;4.68;;
52942;SDS011;38809;53.300;6.614;2023-11-19T05:07:02;22.85;;;4.15;;
52942;SDS011;38809;53.300;6.614;2023-11-19T05:09:30;21.83;;;4.10;;
52942;SDS011;38809;53.300;6.614;2023-11-19T05:11:56;25.77;;;5.07;;
52942;SDS011;38809;53.300;6.614;2023-11-19T05:14:22;26.25;;;4.75;;
52942;SDS011;38809;53.300;6.614;2023-11-19T05:19:15;31.77;;;6.00;;
52942;SDS011;38809;53.300;6.614;2023-11-19T05:21:42;23.15;;;4.88;;
52942;SDS011;38809;53.300;6.614;2023-11-19T05:24:08;26.73;;;5.20;;
52942;SDS011;38809;53.300;6.614;2023-11-19T05:26:34;25.08;;;5.10;;
52942;SDS011;38809;53.300;6.614;2023-11-19T05:29:00;20.85;;;4.55;;
52942;SDS011;38809;53.300;6.614;2023-11-19T05:31:26;26.35;;;5.38;;
52942;SDS011;38809;53.300;6.614;2023-11-19T05:33:53;23.08;;;4.80;;
52942;SDS011;38809;53.300;6.614;2023-11-19T05:36:19;22.17;;;4.40;;
52942;SDS011;38809;53.300;6.614;2023-11-19T05:38:45;25.40;;;5.50;;
52942;SDS011;38809;53.300;6.614;2023-11-19T05:41:11;20.55;;;4.97;;
52942;SDS011;38809;53.300;6.614;2023-11-19T05:43:37;25.15;;;5.63;;
52942;SDS011;38809;53.300;6.614;2023-11-19T05:46:05;22.33;;;4.57;;
52942;SDS011;38809;53.300;6.614;2023-11-19T05:48:31;19.92;;;4.80;;
52942;SDS011;38809;53.300;6.614;2023-11-19T05:50:58;29.00;;;5.15;;
52942;SDS011;38809;53.300;6.614;2023-11-19T05:53:25;24.40;;;4.57;;
52942;SDS011;38809;53.300;6.614;2023-11-19T05:55:51;24.15;;;3.92;;
52942;SDS011;38809;53.300;6.614;2023-11-19T05:58:27;22.80;;;5.50;;
52942;SDS011;38809;53.300;6.614;2023-11-19T06:00:57;22.63;;;5.03;;
52942;SDS011;38809;53.300;6.614;2023-11-19T06:03:25;23.40;;;5.07;;
52942;SDS011;38809;53.300;6.614;2023-11-19T06:05:52;18.10;;;4.63;;
52942;SDS011;38809;53.300;6.614;2023-11-19T06:08:19;21.33;;;5.35;;
52942;SDS011;38809;53.300;6.614;2023-11-19T06:10:46;28.65;;;4.40;;
52942;SDS011;38809;53.300;6.614;2023-11-19T06:13:12;22.55;;;5.30;;
52942;SDS011;38809;53.300;6.614;2023-11-19T06:15:43;29.38;;;5.35;;
52942;SDS011;38809;53.300;6.614;2023-11-19T06:18:09;24.90;;;4.90;;
52942;SDS011;38809;53.300;6.614;2023-11-19T06:20:37;26.25;;;5.88;;
52942;SDS011;38809;53.300;6.614;2023-11-19T06:23:03;30.27;;;5.57;;
52942;SDS011;38809;53.300;6.614;2023-11-19T06:25:29;27.65;;;5.00;;
52942;SDS011;38809;53.300;6.614;2023-11-19T06:27:55;19.15;;;4.68;;
52942;SDS011;38809;53.300;6.614;2023-11-19T06:30:22;21.17;;;5.03;;
52942;SDS011;38809;53.300;6.614;2023-11-19T06:32:48;21.55;;;5.88;;
52942;SDS011;38809;53.300;6.614;2023-11-19T06:35:14;29.38;;;5.82;;
52942;SDS011;38809;53.300;6.614;2023-11-19T06:37:40;21.25;;;5.00;;
52942;SDS011;38809;53.300;6.614;2023-11-19T06:40:07;25.15;;;6.03;;
52942;SDS011;38809;53.300;6.614;2023-11-19T06:42:34;27.60;;;5.47;;
52942;SDS011;38809;53.300;6.614;2023-11-19T06:47:27;23.88;;;4.95;;
52942;SDS011;38809;53.300;6.614;2023-11-19T06:49:53;24.63;;;5.13;;
52942;SDS011;38809;53.300;6.614;2023-11-19T06:54:45;25.80;;;4.50;;
52942;SDS011;38809;53.300;6.614;2023-11-19T06:57:11;29.38;;;5.95;;
52942;SDS011;38809;53.300;6.614;2023-11-19T06:59:38;23.08;;;4.88;;
52942;SDS011;38809;53.300;6.614;2023-11-19T07:02:04;15.50;;;4.55;;
52942;SDS011;38809;53.300;6.614;2023-11-19T07:06:58;22.58;;;4.55;;
52942;SDS011;38809;53.300;6.614;2023-11-19T07:09:27;20.80;;;4.70;;
52942;SDS011;38809;53.300;6.614;2023-11-19T07:11:53;19.38;;;4.85;;
52942;SDS011;38809;53.300;6.614;2023-11-19T07:14:20;17.52;;;4.45;;
52942;SDS011;38809;53.300;6.614;2023-11-19T07:16:48;27.48;;;5.43;;
52942;SDS011;38809;53.300;6.614;2023-11-19T07:19:15;18.25;;;5.07;;
52942;SDS011;38809;53.300;6.614;2023-11-19T07:21:41;30.63;;;5.95;;
52942;SDS011;38809;53.300;6.614;2023-11-19T07:24:09;28.23;;;5.00;;
52942;SDS011;38809;53.300;6.614;2023-11-19T07:26:47;22.33;;;4.13;;
52942;SDS011;38809;53.300;6.614;2023-11-19T07:29:16;23.45;;;5.30;;
52942;SDS011;38809;53.300;6.614;2023-11-19T07:31:43;25.45;;;4.10;;
52942;SDS011;38809;53.300;6.614;2023-11-19T07:34:09;23.50;;;5.55;;
52942;SDS011;38809;53.300;6.614;2023-11-19T07:36:36;26.30;;;5.55;;
52942;SDS011;38809;53.300;6.614;2023-11-19T07:41:30;24.13;;;4.50;;
52942;SDS011;38809;53.300;6.614;2023-11-19T07:43:56;26.30;;;4.97;;
52942;SDS011;38809;53.300;6.614;2023-11-19T07:46:22;21.30;;;5.13;;
52942;SDS011;38809;53.300;6.614;2023-11-19T07:48:48;22.80;;;4.50;;
52942;SDS011;38809;53.300;6.614;2023-11-19T07:51:14;32.53;;;5.55;;
52942;SDS011;38809;53.300;6.614;2023-11-19T07:53:41;29.23;;;5.40;;
52942;SDS011;38809;53.300;6.614;2023-11-19T07:56:07;22.45;;;4.78;;
52942;SDS011;38809;53.300;6.614;2023-11-19T08:01:00;22.67;;;4.65;;
52942;SDS011;38809;53.300;6.614;2023-11-19T08:03:27;22.02;;;4.13;;
52942;SDS011;38809;53.300;6.614;2023-11-19T08:05:57;26.95;;;5.30;;
52942;SDS011;38809;53.300;6.614;2023-11-19T08:08:24;25.33;;;6.18;;
52942;SDS011;38809;53.300;6.614;2023-11-19T08:10:50;17.83;;;3.88;;
52942;SDS011;38809;53.300;6.614;2023-11-19T08:13:21;22.23;;;5.55;;
52942;SDS011;38809;53.300;6.614;2023-11-19T08:15:47;16.00;;;4.28;;
52942;SDS011;38809;53.300;6.614;2023-11-19T08:18:14;26.40;;;5.53;;
52942;SDS011;38809;53.300;6.614;2023-11-19T08:20:40;25.65;;;4.80;;
52942;SDS011;38809;53.300;6.614;2023-11-19T08:23:07;24.02;;;4.45;;
52942;SDS011;38809;53.300;6.614;2023-11-19T08:25:33;23.58;;;4.78;;
52942;SDS011;38809;53.300;6.614;2023-11-19T08:28:00;24.58;;;5.50;;
52942;SDS011;38809;53.300;6.614;2023-11-19T08:30:26;20.50;;;4.05;;
52942;SDS011;38809;53.300;6.614;2023-11-19T08:32:52;20.27;;;5.32;;
52942;SDS011;38809;53.300;6.614;2023-11-19T08:35:18;21.50;;;4.68;;
52942;SDS011;38809;53.300;6.614;2023-11-19T08:37:45;22.02;;;5.03;;
52942;SDS011;38809;53.300;6.614;2023-11-19T08:40:11;23.70;;;4.80;;
52942;SDS011;38809;53.300;6.614;2023-11-19T08:42:40;21.73;;;3.92;;
52942;SDS011;38809;53.300;6.614;2023-11-19T08:45:06;18.85;;;5.53;;
52942;SDS011;38809;53.300;6.614;2023-11-19T08:47:35;23.23;;;4.78;;
52942;SDS011;38809;53.300;6.614;2023-11-19T08:52:29;22.65;;;4.45;;
52942;SDS011;38809;53.300;6.614;2023-11-19T08:54:55;17.98;;;4.18;;
52942;SDS011;38809;53.300;6.614;2023-11-19T08:57:22;24.60;;;4.75;;
52942;SDS011;38809;53.300;6.614;2023-11-19T08:59:48;20.92;;;4.70;;
52942;SDS011;38809;53.300;6.614;2023-11-19T09:02:14;24.67;;;4.70;;
52942;SDS011;38809;53.300;6.614;2023-11-19T09:04:40;19.95;;;4.32;;
52942;SDS011;38809;53.300;6.614;2023-11-19T09:07:06;20.33;;;4.82;;
52942;SDS011;38809;53.300;6.614;2023-11-19T09:09:37;21.75;;;4.40;;
52942;SDS011;38809;53.300;6.614;2023-11-19T09:12:04;23.08;;;4.63;;
52942;SDS011;38809;53.300;6.614;2023-11-19T09:14:30;19.23;;;4.68;;
52942;SDS011;38809;53.300;6.614;2023-11-19T09:16:56;29.00;;;4.57;;
52942;SDS011;38809;53.300;6.614;2023-11-19T09:19:23;22.48;;;4.57;;
52942;SDS011;38809;53.300;6.614;2023-11-19T09:21:49;24.33;;;5.43;;
52942;SDS011;38809;53.300;6.614;2023-11-19T09:24:16;22.00;;;4.75;;
52942;SDS011;38809;53.300;6.614;2023-11-19T09:26:42;28.52;;;5.28;;
52942;SDS011;38809;53.300;6.614;2023-11-19T09:29:08;24.65;;;4.38;;
52942;SDS011;38809;53.300;6.614;2023-11-19T09:31:34;23.45;;;3.92;;
52942;SDS011;38809;53.300;6.614;2023-11-19T09:34:01;16.80;;;4.28;;
52942;SDS011;38809;53.300;6.614;2023-11-19T09:38:53;20.52;;;5.03;;
52942;SDS011;38809;53.300;6.614;2023-11-19T09:41:19;22.00;;;4.97;;
52942;SDS011;38809;53.300;6.614;2023-11-19T09:43:45;15.93;;;4.00;;
52942;SDS011;38809;53.300;6.614;2023-11-19T09:46:13;19.08;;;4.43;;
52942;SDS011;38809;53.300;6.614;2023-11-19T09:48:40;19.02;;;3.55;;
52942;SDS011;38809;53.300;6.614;2023-11-19T09:51:07;19.48;;;4.63;;
52942;SDS011;38809;53.300;6.614;2023-11-19T09:56:00;24.40;;;4.95;;
52942;SDS011;38809;53.300;6.614;2023-11-19T09:58:27;24.08;;;4.43;;
52942;SDS011;38809;53.300;6.614;2023-11-19T10:00:54;19.65;;;4.75;;
52942;SDS011;38809;53.300;6.614;2023-11-19T10:03:20;20.33;;;4.22;;
52942;SDS011;38809;53.300;6.614;2023-11-19T10:05:48;29.08;;;5.32;;
52942;SDS011;38809;53.300;6.614;2023-11-19T10:08:14;21.67;;;4.80;;
52942;SDS011;38809;53.300;6.614;2023-11-19T10:10:41;22.73;;;4.07;;
52942;SDS011;38809;53.300;6.614;2023-11-19T10:13:07;24.90;;;5.00;;
52942;SDS011;38809;53.300;6.614;2023-11-19T10:15:36;19.60;;;4.35;;
52942;SDS011;38809;53.300;6.614;2023-11-19T10:18:02;21.83;;;5.10;;
52942;SDS011;38809;53.300;6.614;2023-11-19T10:20:35;20.95;;;4.25;;
52942;SDS011;38809;53.300;6.614;2023-11-19T10:23:01;18.70;;;3.90;;
52942;SDS011;38809;53.300;6.614;2023-11-19T10:25:28;17.65;;;4.57;;
52942;SDS011;38809;53.300;6.614;2023-11-19T10:27:55;23.08;;;4.53;;
52942;SDS011;38809;53.300;6.614;2023-11-19T10:30:25;23.17;;;5.50;;
52942;SDS011;38809;53.300;6.614;2023-11-19T10:35:36;20.13;;;3.80;;
52942;SDS011;38809;53.300;6.614;2023-11-19T10:38:14;20.73;;;3.55;;
52942;SDS011;38809;53.300;6.614;2023-11-19T10:40:41;24.98;;;5.80;;
52942;SDS011;38809;53.300;6.614;2023-11-19T10:43:07;17.83;;;4.18;;
52942;SDS011;38809;53.300;6.614;2023-11-19T10:45:37;17.15;;;3.85;;
52942;SDS011;38809;53.300;6.614;2023-11-19T10:48:04;16.48;;;3.78;;
52942;SDS011;38809;53.300;6.614;2023-11-19T10:50:33;23.75;;;4.90;;
52942;SDS011;38809;53.300;6.614;2023-11-19T10:53:01;16.05;;;4.53;;
52942;SDS011;38809;53.300;6.614;2023-11-19T10:55:37;21.83;;;4.63;;
52942;SDS011;38809;53.300;6.614;2023-11-19T10:58:04;20.58;;;3.85;;
52942;SDS011;38809;53.300;6.614;2023-11-19T11:00:37;15.55;;;3.72;;
52942;SDS011;38809;53.300;6.614;2023-11-19T11:03:05;20.95;;;4.22;;
52942;SDS011;38809;53.300;6.614;2023-11-19T11:05:35;20.95;;;4.25;;
52942;SDS011;38809;53.300;6.614;2023-11-19T11:08:02;18.88;;;4.35;;
52942;SDS011;38809;53.300;6.614;2023-11-19T11:10:30;12.38;;;3.90;;
52942;SDS011;38809;53.300;6.614;2023-11-19T11:13:02;17.38;;;4.40;;
52942;SDS011;38809;53.300;6.614;2023-11-19T11:15:29;15.85;;;3.78;;
52942;SDS011;38809;53.300;6.614;2023-11-19T11:18:00;21.73;;;4.20;;
52942;SDS011;38809;53.300;6.614;2023-11-19T11:20:27;19.27;;;3.83;;
52942;SDS011;38809;53.300;6.614;2023-11-19T11:23:20;21.73;;;4.55;;
52942;SDS011;38809;53.300;6.614;2023-11-19T11:28:28;19.90;;;4.43;;
52942;SDS011;38809;53.300;6.614;2023-11-19T11:31:12;16.52;;;3.63;;
52942;SDS011;38809;53.300;6.614;2023-11-19T11:33:44;21.10;;;4.03;;
52942;SDS011;38809;53.300;6.614;2023-11-19T11:36:22;17.77;;;3.72;;
52942;SDS011;38809;53.300;6.614;2023-11-19T11:38:49;17.67;;;4.05;;
52942;SDS011;38809;53.300;6.614;2023-11-19T11:48:56;20.70;;;4.97;;
52942;SDS011;38809;53.300;6.614;2023-11-19T11:54:08;17.50;;;4.57;;
52942;SDS011;38809;53.300;6.614;2023-11-19T11:56:38;19.65;;;4.47;;
52942;SDS011;38809;53.300;6.614;2023-11-19T11:59:07;21.58;;;3.95;;
52942;SDS011;38809;53.300;6.614;2023-11-19T12:01:34;15.60;;;3.50;;
52942;SDS011;38809;53.300;6.614;2023-11-19T12:04:00;17.88;;;3.75;;
52942;SDS011;38809;53.300;6.614;2023-11-19T12:06:27;21.38;;;4.95;;
52942;SDS011;38809;53.300;6.614;2023-11-19T12:08:59;21.63;;;3.90;;
52942;SDS011;38809;53.300;6.614;2023-11-19T12:11:25;20.90;;;4.82;;
52942;SDS011;38809;53.300;6.614;2023-11-19T12:13:54;16.02;;;4.30;;
52942;SDS011;38809;53.300;6.614;2023-11-19T12:16:21;18.50;;;4.45;;
52942;SDS011;38809;53.300;6.614;2023-11-19T12:18:47;19.80;;;4.22;;
52942;SDS011;38809;53.300;6.614;2023-11-19T12:21:29;16.92;;;3.90;;
52942;SDS011;38809;53.300;6.614;2023-11-19T12:23:56;22.52;;;5.00;;
52942;SDS011;38809;53.300;6.614;2023-11-19T12:26:31;26.20;;;4.90;;
52942;SDS011;38809;53.300;6.614;2023-11-19T12:28:58;21.45;;;4.57;;
52942;SDS011;38809;53.300;6.614;2023-11-19T12:31:27;18.80;;;3.78;;
52942;SDS011;38809;53.300;6.614;2023-11-19T12:33:53;16.67;;;3.90;;
52942;SDS011;38809;53.300;6.614;2023-11-19T12:36:19;14.05;;;3.70;;
52942;SDS011;38809;53.300;6.614;2023-11-19T12:38:45;18.33;;;4.22;;
52942;SDS011;38809;53.300;6.614;2023-11-19T12:41:12;19.48;;;3.63;;
52942;SDS011;38809;53.300;6.614;2023-11-19T12:43:42;19.13;;;3.80;;
52942;SDS011;38809;53.300;6.614;2023-11-19T12:46:21;15.85;;;3.58;;
52942;SDS011;38809;53.300;6.614;2023-11-19T12:48:48;22.65;;;3.70;;
52942;SDS011;38809;53.300;6.614;2023-11-19T12:51:14;14.63;;;3.22;;
52942;SDS011;38809;53.300;6.614;2023-11-19T12:53:50;16.10;;;3.58;;
52942;SDS011;38809;53.300;6.614;2023-11-19T12:56:19;15.63;;;4.22;;
52942;SDS011;38809;53.300;6.614;2023-11-19T12:58:46;14.32;;;3.30;;
52942;SDS011;38809;53.300;6.614;2023-11-19T13:01:16;17.52;;;3.38;;
52942;SDS011;38809;53.300;6.614;2023-11-19T13:03:43;17.30;;;3.75;;
52942;SDS011;38809;53.300;6.614;2023-11-19T13:06:13;23.88;;;4.25;;
52942;SDS011;38809;53.300;6.614;2023-11-19T13:08:47;17.58;;;4.30;;
52942;SDS011;38809;53.300;6.614;2023-11-19T13:11:15;16.33;;;4.32;;
52942;SDS011;38809;53.300;6.614;2023-11-19T13:16:25;18.73;;;4.40;;
52942;SDS011;38809;53.300;6.614;2023-11-19T13:21:17;20.55;;;3.95;;
52942;SDS011;38809;53.300;6.614;2023-11-19T13:23:43;18.55;;;3.95;;
52942;SDS011;38809;53.300;6.614;2023-11-19T13:26:10;17.42;;;3.92;;
52942;SDS011;38809;53.300;6.614;2023-11-19T13:31:02;21.20;;;3.88;;
52942;SDS011;38809;53.300;6.614;2023-11-19T13:33:28;22.10;;;3.63;;
52942;SDS011;38809;53.300;6.614;2023-11-19T13:35:55;19.02;;;4.00;;
52942;SDS011;38809;53.300;6.614;2023-11-19T13:38:22;17.00;;;4.20;;
52942;SDS011;38809;53.300;6.614;2023-11-19T13:40:51;18.52;;;3.55;;
52942;SDS011;38809;53.300;6.614;2023-11-19T13:43:17;16.92;;;3.40;;
52942;SDS011;38809;53.300;6.614;2023-11-19T13:45:43;24.30;;;4.95;;
52942;SDS011;38809;53.300;6.614;2023-11-19T13:48:09;18.67;;;3.53;;
52942;SDS011;38809;53.300;6.614;2023-11-19T13:50:35;15.93;;;3.05;;
52942;SDS011;38809;53.300;6.614;2023-11-19T13:53:01;19.33;;;4.80;;
52942;SDS011;38809;53.300;6.614;2023-11-19T13:55:30;19.67;;;4.88;;
52942;SDS011;38809;53.300;6.614;2023-11-19T14:00:22;18.23;;;3.65;;
52942;SDS011;38809;53.300;6.614;2023-11-19T14:02:49;20.40;;;3.53;;
52942;SDS011;38809;53.300;6.614;2023-11-19T14:05:15;20.63;;;3.47;;
52942;SDS011;38809;53.300;6.614;2023-11-19T14:07:42;17.30;;;3.42;;
52942;SDS011;38809;53.300;6.614;2023-11-19T14:12:36;18.02;;;3.50;;
52942;SDS011;38809;53.300;6.614;2023-11-19T14:17:30;19.52;;;3.45;;
52942;SDS011;38809;53.300;6.614;2023-11-19T14:19:57;18.80;;;3.45;;
52942;SDS011;38809;53.300;6.614;2023-11-19T14:22:23;21.80;;;4.05;;
52942;SDS011;38809;53.300;6.614;2023-11-19T14:24:50;14.77;;;3.10;;
52942;SDS011;38809;53.300;6.614;2023-11-19T14:27:16;17.98;;;2.95;;
52942;SDS011;38809;53.300;6.614;2023-11-19T14:32:10;19.83;;;4.03;;
52942;SDS011;38809;53.300;6.614;2023-11-19T14:34:42;15.05;;;3.22;;
52942;SDS011;38809;53.300;6.614;2023-11-19T14:37:08;12.20;;;3.83;;
52942;SDS011;38809;53.300;6.614;2023-11-19T14:39:34;15.00;;;3.67;;
52942;SDS011;38809;53.300;6.614;2023-11-19T14:42:01;18.75;;;4.28;;
52942;SDS011;38809;53.300;6.614;2023-11-19T14:44:29;15.13;;;3.20;;
52942;SDS011;38809;53.300;6.614;2023-11-19T14:46:56;17.60;;;3.75;;
52942;SDS011;38809;53.300;6.614;2023-11-19T14:49:22;16.80;;;3.40;;
52942;SDS011;38809;53.300;6.614;2023-11-19T14:51:49;13.77;;;3.00;;
52942;SDS011;38809;53.300;6.614;2023-11-19T14:54:15;14.20;;;3.72;;
52942;SDS011;38809;53.300;6.614;2023-11-19T14:59:08;16.60;;;3.65;;
52942;SDS011;38809;53.300;6.614;2023-11-19T15:01:34;16.10;;;3.85;;
52942;SDS011;38809;53.300;6.614;2023-11-19T15:04:01;17.83;;;3.78;;
52942;SDS011;38809;53.300;6.614;2023-11-19T15:06:27;17.05;;;3.42;;
52942;SDS011;38809;53.300;6.614;2023-11-19T15:08:56;15.38;;;3.30;;
52942;SDS011;38809;53.300;6.614;2023-11-19T15:11:22;26.17;;;4.50;;
52942;SDS011;38809;53.300;6.614;2023-11-19T15:13:48;17.00;;;4.70;;
52942;SDS011;38809;53.300;6.614;2023-11-19T15:16:15;16.13;;;3.38;;
52942;SDS011;38809;53.300;6.614;2023-11-19T15:18:47;15.27;;;2.78;;
52942;SDS011;38809;53.300;6.614;2023-11-19T15:21:14;16.67;;;4.05;;
52942;SDS011;38809;53.300;6.614;2023-11-19T15:23:40;16.13;;;2.88;;
52942;SDS011;38809;53.300;6.614;2023-11-19T15:26:06;11.18;;;2.80;;
52942;SDS011;38809;53.300;6.614;2023-11-19T15:28:35;16.27;;;3.60;;
52942;SDS011;38809;53.300;6.614;2023-11-19T15:31:01;16.30;;;3.58;;
52942;SDS011;38809;53.300;6.614;2023-11-19T15:33:27;20.02;;;4.43;;
52942;SDS011;38809;53.300;6.614;2023-11-19T15:35:53;16.27;;;3.67;;
52942;SDS011;38809;53.300;6.614;2023-11-19T15:38:20;17.58;;;3.88;;
52942;SDS011;38809;53.300;6.614;2023-11-19T15:40:46;15.18;;;4.03;;
52942;SDS011;38809;53.300;6.614;2023-11-19T15:43:12;12.93;;;3.50;;
52942;SDS011;38809;53.300;6.614;2023-11-19T15:45:38;19.48;;;3.42;;
52942;SDS011;38809;53.300;6.614;2023-11-19T15:48:05;19.27;;;3.70;;
52942;SDS011;38809;53.300;6.614;2023-11-19T15:50:31;9.40;;;2.72;;
52942;SDS011;38809;53.300;6.614;2023-11-19T15:52:57;25.88;;;4.18;;
52942;SDS011;38809;53.300;6.614;2023-11-19T15:55:24;16.30;;;3.28;;